createdAt,value
2024-01-12T00:01:41.448Z,24.00
2024-01-12T00:04:25.383Z,28.65
2024-01-12T00:07:10.475Z,30.55
2024-01-12T00:09:53.239Z,32.05
2024-01-12T00:12:35.891Z,23.75
2024-01-12T00:15:18.366Z,22.13
2024-01-12T00:18:00.702Z,18.15
2024-01-12T00:20:45.292Z,16.48
2024-01-12T00:23:28.073Z,16.58
2024-01-12T00:26:10.740Z,19.65
2024-01-12T00:28:53.208Z,21.20
2024-01-12T00:31:35.673Z,16.35
2024-01-12T00:34:17.890Z,13.80
2024-01-12T00:37:03.869Z,17.58
2024-01-12T00:39:46.115Z,23.70
2024-01-12T00:42:28.868Z,23.30
2024-01-12T00:45:11.386Z,17.48
2024-01-12T00:47:54.354Z,13.98
2024-01-12T00:50:36.749Z,17.42
2024-01-12T00:53:20.356Z,16.60
2024-01-12T00:56:02.815Z,12.60
2024-01-12T00:58:45.370Z,16.17
2024-01-12T01:01:27.685Z,12.25
2024-01-12T01:04:10.319Z,16.60
2024-01-12T01:06:54.004Z,15.20
2024-01-12T01:09:36.651Z,10.38
2024-01-12T01:12:19.696Z,11.63
2024-01-12T01:15:02.329Z,13.35
2024-01-12T01:17:46.971Z,11.80
2024-01-12T01:20:29.630Z,11.45
2024-01-12T01:23:14.980Z,11.52
2024-01-12T01:25:57.565Z,12.10
2024-01-12T01:28:39.820Z,14.13
2024-01-12T01:31:22.529Z,13.20
2024-01-12T01:34:04.892Z,13.80
2024-01-12T01:36:47.552Z,13.27
2024-01-12T01:39:29.775Z,14.27
2024-01-12T01:42:12.260Z,13.63
2024-01-12T01:44:54.502Z,14.93
2024-01-12T01:47:37.225Z,13.98
2024-01-12T01:50:19.549Z,16.35
2024-01-12T01:53:03.808Z,17.23
2024-01-12T01:55:46.839Z,16.55
2024-01-12T01:58:29.958Z,16.15
2024-01-12T02:01:12.535Z,14.13
2024-01-12T02:03:55.662Z,12.95
2024-01-12T02:06:38.822Z,13.68
2024-01-12T02:09:21.989Z,15.00
2024-01-12T02:12:07.439Z,18.08
2024-01-12T02:14:50.151Z,15.77
2024-01-12T02:17:32.543Z,14.63
2024-01-12T02:20:15.283Z,13.20
2024-01-12T02:22:57.461Z,13.38
2024-01-12T02:25:40.083Z,14.65
2024-01-12T02:28:22.788Z,14.05
2024-01-12T02:31:05.541Z,11.73
2024-01-12T02:33:51.148Z,12.00
2024-01-12T02:36:33.716Z,11.13
2024-01-12T02:39:16.134Z,10.80
2024-01-12T02:41:59.004Z,9.68
2024-01-12T02:44:41.399Z,9.32
2024-01-12T02:47:24.056Z,9.70
2024-01-12T02:50:06.812Z,9.93
2024-01-12T02:52:49.457Z,9.60
2024-01-12T02:55:31.781Z,10.25
2024-01-12T02:58:14.908Z,10.32
2024-01-12T03:00:57.242Z,9.82
2024-01-12T03:03:39.876Z,9.68
2024-01-12T03:06:22.560Z,9.07
2024-01-12T03:09:06.087Z,10.75
2024-01-12T03:11:48.378Z,17.35
2024-01-12T03:14:30.910Z,21.40
2024-01-12T03:17:13.192Z,15.07
2024-01-12T03:19:55.766Z,15.38
2024-01-12T03:22:38.170Z,13.68
2024-01-12T03:25:20.656Z,12.13
2024-01-12T03:28:02.860Z,12.35
2024-01-12T03:30:45.509Z,10.15
2024-01-12T03:33:27.961Z,10.65
2024-01-12T03:36:11.193Z,10.07
2024-01-12T03:38:55.768Z,9.10
2024-01-12T03:41:38.432Z,9.40
2024-01-12T03:44:20.734Z,9.25
2024-01-12T03:47:03.374Z,9.23
2024-01-12T03:49:45.886Z,10.70
2024-01-12T03:52:28.526Z,10.88
2024-01-12T03:55:10.748Z,10.88
2024-01-12T03:57:53.392Z,10.45
2024-01-12T04:00:36.309Z,10.48
2024-01-12T04:03:19.057Z,11.27
2024-01-12T04:06:01.584Z,10.60
2024-01-12T04:08:44.163Z,9.75
2024-01-12T04:11:28.010Z,11.02
2024-01-12T04:14:10.526Z,10.15
2024-01-12T04:16:52.736Z,10.18
2024-01-12T04:19:35.360Z,10.65
2024-01-12T04:22:17.658Z,10.27
2024-01-12T04:25:00.316Z,15.13
2024-01-12T04:27:42.516Z,19.05
2024-01-12T04:30:25.081Z,19.38
2024-01-12T04:33:07.482Z,17.42
2024-01-12T04:35:50.266Z,15.80
2024-01-12T04:38:32.655Z,14.82
2024-01-12T04:41:15.297Z,14.27
2024-01-12T04:43:57.615Z,18.90
2024-01-12T04:46:40.823Z,32.90
2024-01-12T04:49:23.434Z,30.38
2024-01-12T04:52:06.557Z,31.88
2024-01-12T04:54:48.764Z,35.70
2024-01-12T04:57:31.328Z,31.40
2024-01-12T05:00:14.221Z,25.10
2024-01-12T05:02:57.261Z,27.25
2024-01-12T05:05:39.767Z,25.77
2024-01-12T05:08:22.511Z,29.77
2024-01-12T05:11:05.347Z,28.60
2024-01-12T05:13:48.014Z,18.05
2024-01-12T05:16:30.397Z,18.95
2024-01-12T05:19:13.307Z,15.52
2024-01-12T05:21:55.711Z,15.68
2024-01-12T05:24:39.128Z,16.00
2024-01-12T05:27:21.457Z,24.65
2024-01-12T05:30:04.893Z,27.45
2024-01-12T05:32:47.449Z,28.90
2024-01-12T05:35:30.020Z,27.60
2024-01-12T05:38:12.238Z,31.30
2024-01-12T05:40:54.829Z,29.98
2024-01-12T05:43:37.531Z,26.05
2024-01-12T05:46:20.576Z,26.10
2024-01-12T05:49:05.801Z,24.08
2024-01-12T05:51:48.908Z,26.33
2024-01-12T05:54:31.244Z,26.92
2024-01-12T05:57:13.931Z,27.27
2024-01-12T05:59:56.848Z,29.02
2024-01-12T06:02:39.592Z,26.80
2024-01-12T06:05:22.461Z,28.05
2024-01-12T06:08:05.661Z,29.50
2024-01-12T06:10:48.299Z,29.95
2024-01-12T06:13:30.994Z,31.38
2024-01-12T06:16:13.198Z,29.35
2024-01-12T06:18:55.806Z,28.27
2024-01-12T06:21:40.244Z,27.15
2024-01-12T06:24:22.994Z,24.70
2024-01-12T06:27:05.903Z,35.72
2024-01-12T06:29:48.862Z,35.42
2024-01-12T06:32:31.095Z,35.67
2024-01-12T06:35:15.250Z,36.60
2024-01-12T06:37:58.597Z,38.72
2024-01-12T06:40:41.196Z,34.90
2024-01-12T06:43:23.405Z,37.10
2024-01-12T06:46:08.969Z,36.90
2024-01-12T06:48:51.242Z,37.22
2024-01-12T06:51:33.818Z,35.05
2024-01-12T06:54:18.178Z,31.85
2024-01-12T06:57:01.033Z,30.00
2024-01-12T06:59:43.442Z,28.58
2024-01-12T07:02:26.086Z,28.42
2024-01-12T07:05:08.945Z,29.23
2024-01-12T07:07:52.352Z,30.98
2024-01-12T07:10:34.721Z,29.25
2024-01-12T07:13:17.382Z,27.85
2024-01-12T07:15:59.672Z,28.92
2024-01-12T07:18:43.951Z,29.92
2024-01-12T07:21:26.331Z,32.53
2024-01-12T07:24:09.145Z,33.28
2024-01-12T07:26:51.585Z,29.70
2024-01-12T07:29:34.581Z,31.25
2024-01-12T07:32:16.923Z,34.28
2024-01-12T07:34:59.624Z,33.05
2024-01-12T07:37:42.517Z,35.45
2024-01-12T07:40:25.141Z,33.70
2024-01-12T07:43:07.425Z,29.83
2024-01-12T07:45:50.604Z,30.50
2024-01-12T07:48:33.046Z,29.83
2024-01-12T07:51:17.012Z,35.97
2024-01-12T07:53:59.474Z,30.20
2024-01-12T07:56:42.236Z,30.52
2024-01-12T07:59:24.583Z,30.88
2024-01-12T08:02:07.586Z,33.45
2024-01-12T08:04:50.645Z,28.65
2024-01-12T08:07:33.257Z,24.65
2024-01-12T08:10:17.196Z,22.17
2024-01-12T08:12:59.985Z,20.70
2024-01-12T08:15:42.283Z,18.63
2024-01-12T08:18:25.678Z,19.17
2024-01-12T08:21:08.858Z,22.52
2024-01-12T08:23:51.711Z,22.23
2024-01-12T08:26:34.160Z,19.33
2024-01-12T08:29:17.375Z,21.83
2024-01-12T08:32:00.504Z,18.50
2024-01-12T08:34:43.300Z,19.38
2024-01-12T08:37:25.721Z,20.98
2024-01-12T08:40:08.754Z,20.50
2024-01-12T08:42:51.024Z,22.42
2024-01-12T08:45:33.675Z,22.17
2024-01-12T08:48:16.212Z,18.90
2024-01-12T08:50:59.796Z,17.15
2024-01-12T08:53:42.330Z,16.70
2024-01-12T08:56:24.960Z,19.60
2024-01-12T08:59:07.301Z,18.92
2024-01-12T09:01:49.883Z,20.70
2024-01-12T09:04:32.852Z,21.10
2024-01-12T09:07:15.774Z,22.98
2024-01-12T09:09:58.881Z,22.23
2024-01-12T09:12:42.348Z,20.95
2024-01-12T09:15:24.620Z,20.70
2024-01-12T09:18:08.208Z,18.52
2024-01-12T09:20:50.984Z,18.83
2024-01-12T09:23:33.663Z,21.50
2024-01-12T09:26:17.246Z,22.30
2024-01-12T09:28:59.907Z,23.42
2024-01-12T09:31:42.295Z,22.90
2024-01-12T09:34:25.089Z,21.42
2024-01-12T09:37:07.455Z,21.00
2024-01-12T09:39:50.061Z,22.17
2024-01-12T09:42:33.562Z,21.67
2024-01-12T09:45:22.382Z,21.23
2024-01-12T09:48:09.672Z,22.58
2024-01-12T09:50:54.829Z,14.52
2024-01-12T09:53:37.544Z,19.08
2024-01-12T09:56:25.812Z,19.17
2024-01-12T09:59:11.223Z,21.30
2024-01-12T10:01:54.166Z,18.55
2024-01-12T10:04:36.538Z,16.85
2024-01-12T10:07:19.325Z,15.48
2024-01-12T10:10:01.710Z,15.43
2024-01-12T10:12:52.178Z,14.90
2024-01-12T10:15:41.261Z,16.77
2024-01-12T10:18:24.052Z,15.65
2024-01-12T10:21:06.760Z,14.70
2024-01-12T10:23:49.481Z,14.75
2024-01-12T10:26:31.827Z,15.07
2024-01-12T10:29:15.584Z,12.75
2024-01-12T10:31:57.970Z,9.85
2024-01-12T10:34:41.120Z,8.68
2024-01-12T10:37:24.052Z,9.80
2024-01-12T10:40:08.915Z,10.27
2024-01-12T10:42:52.533Z,11.77
2024-01-12T10:45:37.451Z,12.20
2024-01-12T10:48:24.818Z,12.30
2024-01-12T10:54:01.652Z,9.32
2024-01-12T10:56:45.054Z,7.68
2024-01-12T10:59:29.076Z,7.03
2024-01-12T11:02:14.733Z,7.65
2024-01-12T11:05:00.118Z,8.65
2024-01-12T11:07:44.573Z,9.00
2024-01-12T11:10:28.938Z,9.07
2024-01-12T11:13:15.349Z,9.38
2024-01-12T11:15:58.289Z,10.00
2024-01-12T11:18:42.534Z,11.20
2024-01-12T11:21:26.682Z,11.93
2024-01-12T11:24:13.311Z,13.77
2024-01-12T11:26:56.300Z,14.40
2024-01-12T11:29:40.938Z,15.82
2024-01-12T11:32:23.349Z,16.90
2024-01-12T11:35:21.368Z,20.45
2024-01-12T11:38:08.419Z,19.33
2024-01-12T11:40:51.191Z,24.30
2024-01-12T11:43:33.523Z,24.65
2024-01-12T11:46:16.999Z,25.02
2024-01-12T11:48:59.888Z,26.60
2024-01-12T11:51:43.837Z,28.85
2024-01-12T11:54:26.188Z,29.55
2024-01-12T11:57:10.353Z,32.05
2024-01-12T11:59:58.395Z,29.88
2024-01-12T12:02:42.369Z,26.52
2024-01-12T12:05:27.353Z,27.55
2024-01-12T12:08:12.757Z,27.92
2024-01-12T12:10:57.380Z,28.70
2024-01-12T12:13:40.410Z,26.02
2024-01-12T12:16:22.817Z,28.35
2024-01-12T12:19:05.865Z,25.48
2024-01-12T12:21:48.273Z,24.02
2024-01-12T12:24:32.716Z,25.65
2024-01-12T12:27:18.601Z,25.30
2024-01-12T12:30:02.039Z,25.13
2024-01-12T12:32:46.734Z,23.60
2024-01-12T12:35:29.729Z,25.48
2024-01-12T12:38:12.363Z,25.83
2024-01-12T12:40:54.949Z,23.17
2024-01-12T12:43:39.298Z,23.33
2024-01-12T12:46:22.691Z,21.70
2024-01-12T12:49:05.834Z,22.50
2024-01-12T12:51:48.888Z,23.77
2024-01-12T12:54:32.521Z,22.70
2024-01-12T12:57:15.457Z,23.25
2024-01-12T12:59:58.673Z,23.42
2024-01-12T13:02:41.562Z,23.38
2024-01-12T13:05:24.391Z,21.50
2024-01-12T13:08:10.389Z,21.80
2024-01-12T13:10:54.002Z,21.10
2024-01-12T13:13:36.772Z,20.50
2024-01-12T13:16:19.162Z,21.95
2024-01-12T13:19:14.041Z,22.55
2024-01-12T13:22:01.054Z,22.30
2024-01-12T13:24:44.502Z,22.08
2024-01-12T13:27:28.237Z,25.17
2024-01-12T13:30:11.598Z,25.27
2024-01-12T13:32:54.404Z,24.33
2024-01-12T13:35:37.216Z,31.70
2024-01-12T13:38:19.513Z,26.42
2024-01-12T13:41:03.597Z,64.03
2024-01-12T13:43:46.142Z,82.45
2024-01-12T13:46:28.806Z,84.03
2024-01-12T13:49:11.597Z,167.48
2024-01-12T13:51:54.336Z,171.68
2024-01-12T13:54:36.617Z,82.07
2024-01-12T13:57:19.377Z,40.70
2024-01-12T14:00:02.189Z,39.95
2024-01-12T14:02:45.306Z,43.20
2024-01-12T14:05:28.916Z,44.08
2024-01-12T14:08:13.724Z,39.00
2024-01-12T14:10:56.372Z,32.40
2024-01-12T14:13:39.313Z,33.42
2024-01-12T14:16:21.668Z,36.47
2024-01-12T14:19:04.555Z,32.63
2024-01-12T14:21:47.134Z,36.90
2024-01-12T14:24:32.693Z,44.93
2024-01-12T14:27:16.557Z,42.45
2024-01-12T14:30:01.169Z,45.13
2024-01-12T14:32:44.250Z,39.83
2024-01-12T14:35:27.193Z,47.30
2024-01-12T14:38:09.961Z,40.75
2024-01-12T14:40:52.652Z,40.25
2024-01-12T14:43:35.063Z,48.40
2024-01-12T14:46:17.921Z,45.90
2024-01-12T14:49:00.804Z,44.95
2024-01-12T14:51:44.278Z,39.28
2024-01-12T14:54:26.631Z,36.67
2024-01-12T14:57:09.312Z,32.42
2024-01-12T14:59:52.036Z,38.03
2024-01-12T15:02:34.703Z,41.30
2024-01-12T15:05:17.210Z,33.03
2024-01-12T15:08:00.774Z,30.08
2024-01-12T15:10:43.337Z,31.33
2024-01-12T15:13:26.949Z,30.13
2024-01-12T15:16:09.937Z,23.33
2024-01-12T15:18:52.919Z,25.48
2024-01-12T15:21:35.453Z,23.60
2024-01-12T15:24:18.240Z,30.48
2024-01-12T15:27:01.039Z,23.38
2024-01-12T15:29:43.974Z,20.65
2024-01-12T15:32:26.927Z,22.08
2024-01-12T15:35:10.105Z,31.75
2024-01-12T15:37:52.845Z,29.80
2024-01-12T15:40:35.726Z,34.25
2024-01-12T15:43:18.108Z,24.58
2024-01-12T15:46:00.680Z,37.58
2024-01-12T15:48:43.392Z,23.60
2024-01-12T15:51:26.384Z,45.63
2024-01-12T15:54:09.114Z,28.60
2024-01-12T15:56:51.986Z,35.30
2024-01-12T15:59:34.487Z,31.88
2024-01-12T16:02:17.501Z,41.97
2024-01-12T16:04:59.916Z,40.72
2024-01-12T16:07:43.106Z,31.63
2024-01-12T16:10:25.441Z,39.38
2024-01-12T16:13:08.265Z,41.50
2024-01-12T16:15:51.647Z,32.95
2024-01-12T16:18:34.577Z,51.22
2024-01-12T16:21:35.588Z,41.55
2024-01-12T16:24:18.306Z,40.42
2024-01-12T16:27:00.640Z,37.97
2024-01-12T16:29:43.385Z,35.58
2024-01-12T16:32:25.805Z,35.97
2024-01-12T16:35:08.885Z,30.88
2024-01-12T16:37:51.363Z,35.60
2024-01-12T16:40:33.950Z,30.83
2024-01-12T16:43:16.424Z,30.83
2024-01-12T16:45:58.996Z,34.63
2024-01-12T16:48:42.864Z,32.80
2024-01-12T16:51:25.964Z,39.75
2024-01-12T16:54:08.430Z,35.58
2024-01-12T16:56:51.227Z,41.83
2024-01-12T16:59:33.512Z,32.00
2024-01-12T17:02:16.154Z,28.52
2024-01-12T17:04:58.562Z,28.38
2024-01-12T17:07:41.246Z,24.00
2024-01-12T17:10:23.829Z,22.63
2024-01-12T17:13:06.597Z,31.40
2024-01-12T17:15:49.009Z,25.08
2024-01-12T17:18:33.235Z,20.95
2024-01-12T17:21:25.281Z,23.08
2024-01-12T17:24:10.056Z,27.00
2024-01-12T17:26:52.574Z,23.40
2024-01-12T17:29:35.674Z,30.58
2024-01-12T17:32:17.951Z,28.27
2024-01-12T17:35:00.602Z,34.05
2024-01-12T17:37:43.283Z,33.90
2024-01-12T17:40:25.797Z,40.95
2024-01-12T17:43:08.023Z,30.80
2024-01-12T17:45:50.692Z,35.58
2024-01-12T17:48:34.530Z,24.42
2024-01-12T17:51:17.632Z,30.52
2024-01-12T17:54:00.037Z,36.65
2024-01-12T17:56:42.706Z,27.42
2024-01-12T17:59:25.101Z,43.70
2024-01-12T18:02:08.154Z,30.48
2024-01-12T18:04:51.603Z,31.35
2024-01-12T18:07:34.175Z,28.73
2024-01-12T18:10:17.375Z,31.70
2024-01-12T18:13:00.366Z,30.20
2024-01-12T18:15:45.837Z,28.75
2024-01-12T18:18:28.596Z,29.40
2024-01-12T18:21:10.939Z,32.60
2024-01-12T18:23:53.591Z,49.17
2024-01-12T18:26:35.843Z,30.02
2024-01-12T18:29:18.721Z,32.83
2024-01-12T18:32:01.137Z,27.05
2024-01-12T18:34:44.715Z,34.38
2024-01-12T18:37:27.160Z,31.60
2024-01-12T18:40:10.112Z,33.40
2024-01-12T18:42:52.519Z,32.78
2024-01-12T18:45:37.907Z,27.65
2024-01-12T18:48:20.344Z,31.75
2024-01-12T18:51:03.114Z,40.00
2024-01-12T18:53:45.559Z,32.08
2024-01-12T18:56:28.388Z,31.55
2024-01-12T18:59:10.774Z,29.80
2024-01-12T19:01:55.816Z,35.78
2024-01-12T19:04:38.448Z,28.77
2024-01-12T19:07:21.038Z,37.22
2024-01-12T19:10:03.340Z,26.42
2024-01-12T19:12:47.891Z,33.95
2024-01-12T19:15:30.379Z,29.75
2024-01-12T19:18:13.527Z,32.22
2024-01-12T19:20:55.980Z,30.50
2024-01-12T19:23:38.672Z,29.02
2024-01-12T19:26:21.291Z,30.05
2024-01-12T19:29:04.001Z,23.10
2024-01-12T19:31:46.550Z,32.13
2024-01-12T19:34:29.957Z,32.63
2024-01-12T19:37:12.702Z,43.20
2024-01-12T19:39:55.876Z,39.03
2024-01-12T19:42:38.222Z,26.92
2024-01-12T19:45:20.922Z,32.47
2024-01-12T19:48:03.388Z,36.55
2024-01-12T19:50:46.190Z,32.70
2024-01-12T19:53:28.469Z,33.80
2024-01-12T19:56:11.108Z,33.10
2024-01-12T19:58:56.362Z,32.25
2024-01-12T20:01:39.325Z,22.30
2024-01-12T20:04:33.197Z,36.25
2024-01-12T20:07:24.143Z,33.10
2024-01-12T20:10:08.319Z,35.17
2024-01-12T20:12:50.843Z,33.42
2024-01-12T20:15:33.221Z,35.13
2024-01-12T20:18:16.082Z,35.53
2024-01-12T20:20:58.629Z,36.97
2024-01-12T20:23:41.304Z,38.60
2024-01-12T20:26:28.619Z,36.40
2024-01-12T20:29:13.756Z,39.17
2024-01-12T20:31:57.058Z,36.10
2024-01-12T20:34:39.879Z,36.20
2024-01-12T20:37:22.277Z,33.22
2024-01-12T20:40:06.303Z,39.17
2024-01-12T20:42:48.623Z,34.72
2024-01-12T20:45:31.219Z,33.75
2024-01-12T20:48:13.719Z,33.92
2024-01-12T20:50:58.391Z,34.33
2024-01-12T20:53:48.407Z,32.13
2024-01-12T20:56:31.605Z,33.58
2024-01-12T20:59:15.055Z,32.33
2024-01-12T21:01:57.738Z,29.23
2024-01-12T21:04:40.164Z,38.28
2024-01-12T21:07:22.820Z,33.28
2024-01-12T21:10:05.906Z,31.67
2024-01-12T21:12:48.437Z,30.58
2024-01-12T21:15:32.473Z,30.25
2024-01-12T21:18:15.353Z,31.48
2024-01-12T21:20:58.030Z,28.48
2024-01-12T21:23:40.803Z,30.83
2024-01-12T21:26:23.718Z,29.48
2024-01-12T21:29:06.538Z,30.75
2024-01-12T21:31:49.158Z,27.48
2024-01-12T21:34:32.125Z,28.33
2024-01-12T21:37:14.828Z,44.78
2024-01-12T21:39:59.380Z,40.95
2024-01-12T21:42:41.966Z,29.58
2024-01-12T21:45:24.806Z,24.10
2024-01-12T21:48:07.975Z,27.05
2024-01-12T21:50:50.840Z,22.58
2024-01-12T21:53:33.583Z,27.95
2024-01-12T21:56:16.466Z,32.22
2024-01-12T21:58:58.766Z,27.38
2024-01-12T22:01:41.564Z,29.48
2024-01-12T22:04:24.154Z,25.38
2024-01-12T22:07:07.041Z,24.42
2024-01-12T22:09:49.350Z,35.67
2024-01-12T22:12:32.024Z,27.67
2024-01-12T22:15:14.637Z,24.73
2024-01-12T22:17:57.482Z,24.23
2024-01-12T22:20:39.860Z,25.20
2024-01-12T22:23:22.539Z,22.15
2024-01-12T22:26:05.273Z,20.77
2024-01-12T22:28:47.850Z,21.95
2024-01-12T22:31:30.108Z,23.40
2024-01-12T22:34:14.328Z,23.58
2024-01-12T22:36:56.709Z,22.27
2024-01-12T22:39:39.346Z,22.65
2024-01-12T22:42:21.652Z,19.83
2024-01-12T22:45:04.502Z,20.85
2024-01-12T22:47:47.065Z,18.98
2024-01-12T22:50:29.688Z,20.52
2024-01-12T22:53:12.098Z,19.58
2024-01-12T22:55:54.981Z,20.67
2024-01-12T22:58:37.320Z,19.25
2024-01-12T23:01:20.227Z,21.50
2024-01-12T23:04:03.191Z,18.40
2024-01-12T23:06:45.970Z,18.42
2024-01-12T23:09:28.250Z,17.20
2024-01-12T23:12:11.916Z,17.02
2024-01-12T23:14:55.119Z,15.95
2024-01-12T23:17:45.825Z,15.98
2024-01-12T23:20:28.299Z,18.90
2024-01-12T23:23:11.384Z,14.80
2024-01-12T23:25:53.836Z,14.93
2024-01-12T23:28:36.545Z,14.75
2024-01-12T23:31:20.619Z,14.60
2024-01-12T23:34:03.481Z,13.38
2024-01-12T23:36:46.541Z,13.95
2024-01-12T23:39:30.514Z,13.18
2024-01-12T23:42:12.834Z,13.95
2024-01-12T23:44:55.477Z,12.70
2024-01-12T23:47:37.912Z,11.77
2024-01-12T23:50:20.709Z,12.68
2024-01-12T23:53:03.164Z,11.80
2024-01-12T23:55:45.857Z,14.32
2024-01-12T23:58:34.473Z,13.77
